Weather at Gdańsk-Wrzeszcz Air Base [CLOSED]

Public forecast

Using degrees Celsius for public forecast. Weather courtesy of forecast.io.

Closest aviation weather report (METAR) to Gdańsk-Wrzeszcz Air Base

Closest report is Gdańsk Lech Wałęsa Airport, 4.9 nm (9.1 km) WSW. Retrieved 2021/06/13 16:30 UTC (12 seconds ago):

EPGD 131630Z 30017KT CAVOK 17/09 Q1019

Closest aviation forecast (TAF) to Gdańsk-Wrzeszcz Air Base

Closest forecast is Gdańsk Lech Wałęsa Airport, 4.9 nm (9.1 km) WSW. Retrieved 2021/06/13 12:33 UTC (4 hours ago):

TAF TAF EPGD 131130Z 1312/1412 32020G32KT 9999 SCT030 BECMG 1316/1319 27006KT